Flight Track Log - Related Links

Times and Time Zones

All times are in EDT time to prevent confusion due to time zone crossing. See the EJA831 flight status page for this flight to view local times or setup timezone preferences in your user account.

Time Position Orientation Groundspeed Altitude Reporting Facility
EDT Latitude Longitude Course Direction KTS MPH feet Rate Location/Type
Tue 03:50:45 PM 39.3086 -81.4306 111° Southeast 202 232 3,300  Level Indianapolis Center
Tue 03:51:47 PM 39.2775 -81.3286 111° Southeast 250 288 7,100 3,145 Climbing Indianapolis Center
Tue 03:52:49 PM 39.2489 -81.2247 110° East 292 336 9,800 2,226 Climbing Indianapolis Center
Tue 03:53:51 PM 39.2156 -81.1092 110° East 336 387 11,700 1,694 Climbing Indianapolis Center
Tue 03:54:53 PM 39.1797 -80.9847 110° East 366 421 13,300 1,548 Climbing Indianapolis Center
Tue 03:55:55 PM 39.1417 -80.8539 111° Southeast 386 444 14,900 1,500 Climbing Indianapolis Center
Tue 03:56:57 PM 39.1028 -80.7219 111° Southeast 391 450 16,400 1,452 Climbing Indianapolis Center
Tue 03:57:59 PM 39.0617 -80.5856 111° Southeast 405 466 17,900 1,500 Climbing Indianapolis Center
Tue 03:59:01 PM 39.0117 -80.4194 111° Southeast 414 476 19,500 1,392 Climbing Indianapolis Center
Tue 04:00:04 PM 38.9694 -80.2794 111° Southeast 418 481 20,800 1,258 Climbing Indianapolis Center
Tue 04:01:05 PM 38.9269 -80.1361 111° Southeast 426 490 22,100 1,366 Climbing Indianapolis Center
Tue 04:02:07 PM 38.8642 -79.9842 118° Southeast 434 499 23,600 1,258 Climbing Indianapolis Center
Tue 04:03:09 PM 38.8100 -79.8644 120° Southeast 434 499 24,700 1,000 Climbing Indianapolis Center
Tue 04:04:01 PM 38.7581 -79.7528 121° Southeast 434 499 25,500 857 Climbing Washington Center
Tue 04:05:01 PM 38.6958 -79.6164 120° Southeast 439 505 26,300 934 Climbing Washington Center
Tue 04:06:03 PM 38.6278 -79.4664 120° Southeast 444 511 27,400 900 Climbing Washington Center
Tue 04:07:01 PM 38.5636 -79.3250 120° Southeast 449 517 28,100 706 Climbing Washington Center
Tue 04:08:02 PM 38.4989 -79.1864 121° Southeast 449 517 28,800 694 Climbing Washington Center
Tue 04:09:02 PM 38.4828 -79.0317 98° East 441 507 29,500 655 Climbing Washington Center
Tue 04:10:01 PM 38.4850 -78.8781 89° East 426 490 30,100 655 Climbing Washington Center
Tue 04:11:01 PM 38.4783 -78.7344 93° East 437 503 30,800 694 Climbing Washington Center
Tue 04:12:02 PM 38.4697 -78.5831 94° East 437 503 31,500 689 Climbing Washington Center
Tue 04:13:03 PM 38.4631 -78.4289 93° East 437 503 32,200 706 Climbing Washington Center
Tue 04:14:01 PM 38.4539 -78.2747 94° East 437 503 32,900 407 Climbing Washington Center
Tue 04:15:01 PM 38.4469 -78.1181 93° East 437 503 33,000 50 Climbing Washington Center
Tue 04:16:02 PM 38.4378 -77.9614 94° East 443 510 33,000  Level Washington Center
Tue 04:17:03 PM 38.4283 -77.7889 94° East 443 510 33,000  Level Washington Center
Tue 04:18:01 PM 38.4186 -77.6347 95° East 443 510 33,000  Level Washington Center
Tue 04:19:01 PM 38.4108 -77.4783 94° East 443 510 33,000  Level Washington Center
Tue 04:20:02 PM 38.4297 -77.3250 81° East 428 493 33,000  Level Washington Center
Tue 04:21:02 PM 38.4858 -77.1964 61° Northeast 413 475 33,000  Level Washington Center
Tue 04:22:03 PM 38.5478 -77.0678 58° Northeast 413 475 33,000 -545 Level Washington Center
Tue 04:23:03 PM 38.6097 -76.9439 57° Northeast 413 475 31,900 -1,220 Descending Washington Center
Tue 04:24:01 PM 38.6694 -76.8175 59° Northeast 413 475 30,600 -1,311 Descending Washington Center
Tue 04:25:02 PM 38.7350 -76.7094 52° Northeast 406 467 29,300 -1,289 Descending Washington Center
Tue 04:26:02 PM 38.8153 -76.6147 43° Northeast 389 448 28,000 -1,261 Descending Washington Center
Tue 04:27:01 PM 38.8972 -76.5225 41° Northeast 377 434 26,800 -1,250 Descending Washington Center
Tue 04:28:02 PM 38.9814 -76.4247 42° Northeast 392 451 25,500 -1,279 Descending Washington Center
Tue 04:29:03 PM 39.0675 -76.3242 42° Northeast 397 457 24,200 -744 Descending Washington Center
Tue 04:30:03 PM 39.1492 -76.2286 42° Northeast 402 463 24,000 -102 Descending Washington Center
Tue 04:31:01 PM 39.2372 -76.1303 41° Northeast 402 463 24,000 -1,005 Level Washington Center
Tue 04:33:38 PM 39.4667 -75.9167 36° Northeast 366 421 20,400 -1,534 Descending Philadelphia TRACON
Tue 04:34:44 PM 39.5500 -75.8167 43° Northeast 372 428 18,300 -1,857 Descending Philadelphia TRACON
Tue 04:35:44 PM 39.6333 -75.7500 32° Northeast 336 387 16,500 -1,800 Descending Philadelphia TRACON
Tue 04:36:44 PM 39.7167 -75.6833 32° Northeast 341 392 14,700 -1,750 Descending Philadelphia TRACON
Tue 04:37:44 PM 39.7833 -75.6000 44° Northeast 355 409 13,000 -850 Descending Philadelphia TRACON
Tue 04:38:44 PM 39.8667 -75.5333 32° Northeast 348 400 13,000  Level Philadelphia TRACON
Tue 04:39:50 PM 39.9500 -75.4500 37° Northeast 346 398 13,000  Level Philadelphia TRACON
Tue 04:40:44 PM 40.0333 -75.3833 31° Northeast 347 399 13,000  Level Philadelphia TRACON
Tue 04:41:44 PM 40.1167 -75.3167 31° Northeast 349 402 13,000 -429 Level Philadelphia TRACON
Tue 04:42:50 PM 40.2000 -75.2333 37° Northeast 346 398 12,100 -1,326 Descending Philadelphia TRACON
Tue 04:44:54 PM 40.3000 -75.0500 54° Northeast 300 345 8,800 -1,611 Descending New York TRACON
Tue 04:46:00 PM 40.3667 -74.9667 44° Northeast 299 344 7,000 -1,190 Descending New York TRACON
Tue 04:47:00 PM 40.4333 -74.9167 30° Northeast 287 330 6,300 -1,000 Descending New York TRACON
Tue 04:48:00 PM 40.5000 -74.8500 37° Northeast 287 330 5,000 -1,200 Descending New York TRACON
Tue 04:49:00 PM 40.5500 -74.7833 45° Northeast 280 322 3,900 -550 Descending New York TRACON
Tue 04:50:00 PM 40.6167 -74.7000 43° Northeast 286 329 3,900 -350 Level New York TRACON
Tue 04:51:00 PM 40.6833 -74.6500 30° Northeast 275 316 3,200 -700 Descending New York TRACON
Tue 04:52:00 PM 40.7333 -74.5833 45° Northeast 277 319 2,500 -150 Descending New York TRACON
Tue 04:53:00 PM 40.8000 -74.5167 37° Northeast 282 325 2,900 200 Climbing New York TRACON
Tue 04:54:00 PM 40.8500 -74.4333 52° Northeast 286 329 2,900  Level New York TRACON
Tue 04:55:00 PM 40.8833 -74.3667 57° Northeast 227 261 2,900  Level New York TRACON
Tue 04:56:00 PM 40.9167 -74.3167 49° Northeast 215 247 2,900  Level New York TRACON
Tue 04:57:00 PM 40.9500 -74.2500 56° Northeast 225 259 2,900  Level New York TRACON
Tue 04:58:00 PM 41.0000 -74.1833 45° Northeast 223 257 2,900  Level New York TRACON
Tue 04:59:00 PM 41.0333 -74.1333 49° Northeast 207 238 2,900 -496 Level New York TRACON
Tue 05:00:01 PM 41.0333 -74.0667 90° East 217 250 1,900 -984 Descending New York TRACON

Login

Don't have an account? Register now (free) for customized features, flight alerts, and more!